createdAt,value
2022-08-12T00:00:11.204Z,97.10
2022-08-12T00:02:56.727Z,97.10
2022-08-12T00:05:59.688Z,97.10
2022-08-12T00:08:52.399Z,97.10
2022-08-12T00:11:38.530Z,97.00
2022-08-12T00:14:25.886Z,97.00
2022-08-12T00:17:12.203Z,97.00
2022-08-12T00:19:57.976Z,97.00
2022-08-12T00:22:44.170Z,97.10
2022-08-12T00:26:01.312Z,97.20
2022-08-12T00:28:36.098Z,97.20
2022-08-12T00:31:23.332Z,97.30
2022-08-12T00:34:09.351Z,97.20
2022-08-12T00:36:58.457Z,97.20
2022-08-12T00:39:48.767Z,97.20
2022-08-12T00:42:20.141Z,97.30
2022-08-12T00:44:48.458Z,97.30
2022-08-12T00:47:24.715Z,97.40
2022-08-12T00:49:54.694Z,97.50
2022-08-12T00:52:25.679Z,97.60
2022-08-12T00:54:57.434Z,97.60
2022-08-12T00:57:27.663Z,97.60
2022-08-12T00:59:59.110Z,97.70
2022-08-12T01:02:31.862Z,97.70
2022-08-12T01:05:20.136Z,97.80
2022-08-12T01:08:07.669Z,97.80
2022-08-12T01:10:55.121Z,98.20
2022-08-12T01:13:24.149Z,97.90
2022-08-12T01:15:55.027Z,98.00
2022-08-12T01:18:27.417Z,98.00
2022-08-12T01:21:07.871Z,98.10
2022-08-12T01:24:30.175Z,98.00
2022-08-12T01:26:59.637Z,98.00
2022-08-12T01:29:33.037Z,98.10
2022-08-12T01:32:08.758Z,98.10
2022-08-12T01:34:39.521Z,98.10
2022-08-12T01:37:09.796Z,98.00
2022-08-12T01:40:35.602Z,98.00
2022-08-12T01:42:46.470Z,97.90
2022-08-12T01:45:17.737Z,97.80
2022-08-12T01:48:05.416Z,97.80
2022-08-12T01:50:43.142Z,97.90
2022-08-12T01:53:15.931Z,97.80
2022-08-12T01:55:48.243Z,97.90
2022-08-12T01:58:51.866Z,98.00
2022-08-12T02:01:24.057Z,98.10
2022-08-12T02:04:21.626Z,98.00
2022-08-12T02:07:20.823Z,98.00
2022-08-12T02:10:50.610Z,97.90
2022-08-12T02:13:48.640Z,98.00
2022-08-12T02:16:22.816Z,98.00
2022-08-12T02:18:59.720Z,97.90
2022-08-12T02:21:39.141Z,97.90
2022-08-12T02:24:09.365Z,97.90
2022-08-12T02:26:41.970Z,97.90
2022-08-12T02:29:10.482Z,97.90
2022-08-12T02:31:41.159Z,97.80
2022-08-12T02:34:12.663Z,97.80
2022-08-12T02:36:41.556Z,97.80
2022-08-12T02:39:14.420Z,97.80
2022-08-12T02:41:45.608Z,97.80
2022-08-12T02:44:16.702Z,97.80
2022-08-12T02:46:50.416Z,97.80
2022-08-12T02:49:24.359Z,97.80
2022-08-12T02:51:55.141Z,97.80
2022-08-12T02:54:24.406Z,97.80
2022-08-12T02:56:53.407Z,97.90
2022-08-12T02:59:25.170Z,97.90
2022-08-12T03:01:56.159Z,97.90
2022-08-12T03:04:27.419Z,97.90
2022-08-12T03:07:05.566Z,97.90
2022-08-12T03:10:03.673Z,97.90
2022-08-12T03:12:34.013Z,97.90
2022-08-12T03:15:06.672Z,98.00
2022-08-12T03:17:44.504Z,98.00
2022-08-12T03:20:17.395Z,98.00
2022-08-12T03:22:46.886Z,98.10
2022-08-12T03:25:18.164Z,98.10
2022-08-12T03:27:51.842Z,98.10
2022-08-12T03:30:21.321Z,98.10
2022-08-12T03:32:52.865Z,98.10
2022-08-12T03:35:39.927Z,98.20
2022-08-12T03:38:12.518Z,98.20
2022-08-12T03:41:13.501Z,98.30
2022-08-12T03:44:06.797Z,98.30
2022-08-12T03:46:58.516Z,98.30
2022-08-12T03:49:46.189Z,98.30
2022-08-12T03:52:31.844Z,98.30
2022-08-12T03:55:17.735Z,98.30
2022-08-12T03:58:03.696Z,98.30
2022-08-12T04:00:32.381Z,98.30
2022-08-12T04:03:01.956Z,98.30
2022-08-12T04:05:54.527Z,98.30
2022-08-12T04:08:26.147Z,98.30
2022-08-12T04:11:11.771Z,98.20
2022-08-12T04:13:40.861Z,98.20
2022-08-12T04:16:13.723Z,98.10
2022-08-12T04:18:42.843Z,98.00
2022-08-12T04:21:12.574Z,98.00
2022-08-12T04:23:47.649Z,98.00
2022-08-12T04:26:16.723Z,98.00
2022-08-12T04:28:46.052Z,98.10
2022-08-12T04:31:14.574Z,98.20
2022-08-12T04:33:44.026Z,98.30
2022-08-12T04:36:13.677Z,98.40
2022-08-12T04:38:43.660Z,98.40
2022-08-12T04:41:12.334Z,98.50
2022-08-12T04:43:54.574Z,98.50
2022-08-12T04:46:33.723Z,98.60
2022-08-12T04:49:03.730Z,98.60
2022-08-12T04:51:34.633Z,98.70
2022-08-12T04:54:03.492Z,98.80
2022-08-12T04:56:35.559Z,98.90
2022-08-12T04:59:05.547Z,99.00
2022-08-12T05:01:33.933Z,99.10
2022-08-12T05:04:02.954Z,99.20
2022-08-12T05:06:32.948Z,99.20
2022-08-12T05:09:02.006Z,99.30
2022-08-12T05:11:39.598Z,99.40
2022-08-12T05:14:22.733Z,99.40
2022-08-12T05:16:51.085Z,99.40
2022-08-12T05:19:22.520Z,99.40
2022-08-12T05:21:52.626Z,99.50
2022-08-12T05:24:20.954Z,99.50
2022-08-12T05:26:49.314Z,99.60
2022-08-12T05:30:07.513Z,99.60
2022-08-12T05:32:08.409Z,99.60
2022-08-12T05:34:36.706Z,99.60
2022-08-12T05:37:06.656Z,99.60
2022-08-12T05:39:35.314Z,99.70
2022-08-12T05:42:04.477Z,99.70
2022-08-12T05:44:32.970Z,99.70
2022-08-12T05:47:03.160Z,99.70
2022-08-12T05:49:34.007Z,99.80
2022-08-12T05:52:02.961Z,99.80
2022-08-12T05:54:54.669Z,99.80
2022-08-12T05:57:21.688Z,99.80
2022-08-12T05:59:49.981Z,99.80
2022-08-12T06:02:18.315Z,99.80
2022-08-12T06:04:46.944Z,99.80
2022-08-12T06:07:59.408Z,99.80
2022-08-12T06:10:06.302Z,99.80
2022-08-12T06:12:35.018Z,99.90
2022-08-12T06:15:03.397Z,99.90
2022-08-12T06:17:32.124Z,99.90
2022-08-12T06:20:28.909Z,99.90
2022-08-12T06:22:50.982Z,99.90
2022-08-12T06:25:27.935Z,99.90
2022-08-12T06:28:07.606Z,99.90
2022-08-12T06:30:39.137Z,99.90
2022-08-12T06:33:25.074Z,99.90
2022-08-12T06:35:58.896Z,99.90
2022-08-12T06:38:28.812Z,99.90
2022-08-12T06:41:17.757Z,99.90
2022-08-12T06:44:07.126Z,99.90
2022-08-12T06:46:38.923Z,99.90
2022-08-12T06:49:08.756Z,99.90
2022-08-12T06:51:37.228Z,99.90
2022-08-12T06:54:05.684Z,99.90
2022-08-12T06:59:25.616Z,99.90
2022-08-12T07:01:55.082Z,99.90
2022-08-12T07:04:36.193Z,99.90
2022-08-12T07:07:07.360Z,99.90
2022-08-12T07:10:03.718Z,99.90
2022-08-12T07:12:36.568Z,99.90
2022-08-12T07:15:05.533Z,99.90
2022-08-12T07:17:37.714Z,99.90
2022-08-12T07:20:20.146Z,99.90
2022-08-12T07:22:57.915Z,99.90
2022-08-12T07:25:41.093Z,99.90
2022-08-12T07:28:16.701Z,99.90
2022-08-12T07:30:48.595Z,99.90
2022-08-12T07:33:18.180Z,99.90
2022-08-12T07:35:48.242Z,99.90
2022-08-12T07:38:29.192Z,99.90
2022-08-12T07:41:02.982Z,99.90
2022-08-12T07:43:33.882Z,99.90
2022-08-12T07:46:03.069Z,99.90
2022-08-12T07:48:38.617Z,99.90
2022-08-12T07:51:08.003Z,99.90
2022-08-12T07:53:48.633Z,99.90
2022-08-12T07:56:28.634Z,99.80
2022-08-12T07:58:59.385Z,99.70
2022-08-12T08:01:28.450Z,99.50
2022-08-12T08:04:18.662Z,99.40
2022-08-12T08:06:48.161Z,99.30
2022-08-12T08:09:19.404Z,99.10
2022-08-12T08:12:05.617Z,99.00
2022-08-12T08:14:35.478Z,98.90
2022-08-12T08:17:06.674Z,98.80
2022-08-12T08:19:48.522Z,98.80
2022-08-12T08:22:33.444Z,98.60
2022-08-12T08:25:34.394Z,98.40
2022-08-12T08:28:03.208Z,98.40
2022-08-12T08:30:34.397Z,98.20
2022-08-12T08:33:02.751Z,98.10
2022-08-12T08:35:49.135Z,98.00
2022-08-12T08:38:23.493Z,98.00
2022-08-12T08:42:15.751Z,97.90
2022-08-12T08:44:07.425Z,97.70
2022-08-12T08:46:38.196Z,97.30
2022-08-12T08:49:06.996Z,97.10
2022-08-12T08:51:36.566Z,96.50
2022-08-12T08:54:05.099Z,96.20
2022-08-12T08:56:33.739Z,95.90
2022-08-12T08:59:02.010Z,95.70
2022-08-12T09:01:37.836Z,95.60
2022-08-12T09:05:07.427Z,95.30
2022-08-12T09:07:17.682Z,95.00
2022-08-12T09:12:57.785Z,95.00
2022-08-12T09:21:09.718Z,94.30
2022-08-12T09:23:57.269Z,94.40
2022-08-12T09:26:28.977Z,94.60
2022-08-12T09:28:57.909Z,94.70
2022-08-12T09:32:03.275Z,94.10
2022-08-12T09:34:27.993Z,94.20
2022-08-12T09:37:19.371Z,94.00
2022-08-12T09:40:00.858Z,93.90
2022-08-12T09:43:11.271Z,93.30
2022-08-12T09:46:11.851Z,93.30
2022-08-12T09:48:26.841Z,93.00
2022-08-12T09:51:03.682Z,93.00
2022-08-12T09:53:38.563Z,92.20
2022-08-12T09:57:00.569Z,92.00
2022-08-12T09:59:01.998Z,91.90
2022-08-12T10:01:35.647Z,91.80
2022-08-12T10:04:20.901Z,91.90
2022-08-12T10:06:55.079Z,91.80
2022-08-12T10:09:28.592Z,91.80
2022-08-12T10:12:33.631Z,92.00
2022-08-12T10:15:02.726Z,92.00
2022-08-12T10:17:31.224Z,92.20
2022-08-12T10:20:01.425Z,92.20
2022-08-12T10:22:39.906Z,92.00
2022-08-12T10:26:34.604Z,91.90
2022-08-12T10:28:36.616Z,91.60
2022-08-12T10:31:16.237Z,91.40
2022-08-12T10:33:55.186Z,91.20
2022-08-12T10:36:39.775Z,91.10
2022-08-12T10:40:00.140Z,91.10
2022-08-12T10:42:18.341Z,91.20
2022-08-12T10:45:01.228Z,91.30
2022-08-12T10:48:19.134Z,91.30
2022-08-12T10:50:33.519Z,91.40
2022-08-12T10:53:11.969Z,91.60
2022-08-12T10:55:55.558Z,91.70
2022-08-12T10:58:28.042Z,91.70
2022-08-12T11:01:26.095Z,91.80
2022-08-12T11:04:24.605Z,91.90
2022-08-12T11:07:06.102Z,92.20
2022-08-12T11:09:55.911Z,91.90
2022-08-12T11:12:55.549Z,91.70
2022-08-12T11:15:19.209Z,91.70
2022-08-12T11:17:53.889Z,92.40
2022-08-12T11:20:24.386Z,92.20
2022-08-12T11:22:59.269Z,92.10
2022-08-12T11:25:56.184Z,92.00
2022-08-12T11:28:16.896Z,92.10
2022-08-12T11:30:46.874Z,91.80
2022-08-12T11:34:03.535Z,91.80
2022-08-12T11:36:14.045Z,91.70
2022-08-12T11:38:43.221Z,91.70
2022-08-12T11:41:28.121Z,91.40
2022-08-12T11:44:27.617Z,91.40
2022-08-12T11:46:53.240Z,91.40
2022-08-12T11:49:32.191Z,91.10
2022-08-12T11:52:02.904Z,90.90
2022-08-12T11:54:31.766Z,90.90
2022-08-12T11:57:02.319Z,90.70
2022-08-12T12:02:22.268Z,90.60
2022-08-12T12:04:52.478Z,90.90
2022-08-12T12:08:36.222Z,91.00
2022-08-12T12:10:13.143Z,90.80
2022-08-12T12:12:49.691Z,90.90
2022-08-12T12:15:25.450Z,90.80
2022-08-12T12:18:22.451Z,90.60
2022-08-12T12:21:01.085Z,90.50
2022-08-12T12:23:35.624Z,90.40
2022-08-12T12:26:08.148Z,90.30
2022-08-12T12:28:39.770Z,90.30
2022-08-12T12:31:14.566Z,90.40
2022-08-12T12:33:46.226Z,90.40
2022-08-12T12:36:30.306Z,90.80
2022-08-12T12:39:00.464Z,90.60
2022-08-12T12:42:42.126Z,90.50
2022-08-12T12:44:25.664Z,90.50
2022-08-12T12:47:28.804Z,90.60
2022-08-12T12:49:56.493Z,90.80
2022-08-12T12:52:26.829Z,90.70
2022-08-12T12:54:55.571Z,90.80
2022-08-12T12:57:58.841Z,90.80
2022-08-12T13:00:18.026Z,90.70
2022-08-12T13:02:53.638Z,91.00
2022-08-12T13:05:27.742Z,91.40
2022-08-12T13:08:01.034Z,91.30
2022-08-12T13:10:36.712Z,91.20
2022-08-12T13:14:08.019Z,91.20
2022-08-12T13:15:59.435Z,90.90
2022-08-12T13:18:31.603Z,91.20
2022-08-12T13:21:02.300Z,91.30
2022-08-12T13:23:36.551Z,91.10
2022-08-12T13:26:14.509Z,90.90
2022-08-12T13:28:49.644Z,90.80
2022-08-12T13:31:25.059Z,90.70
2022-08-12T13:34:32.495Z,90.60
2022-08-12T13:36:45.385Z,90.50
2022-08-12T13:39:16.448Z,90.30
2022-08-12T13:41:44.978Z,90.20
2022-08-12T13:44:13.628Z,90.30
2022-08-12T13:46:42.555Z,90.10
2022-08-12T13:49:17.347Z,90.20
2022-08-12T13:52:05.868Z,90.20
2022-08-12T13:54:34.524Z,90.00
2022-08-12T13:57:02.801Z,89.60
2022-08-12T13:59:48.590Z,89.40
2022-08-12T14:02:21.220Z,89.10
2022-08-12T14:04:56.335Z,88.90
2022-08-12T14:07:28.513Z,88.70
2022-08-12T14:10:31.606Z,90.10
2022-08-12T14:13:01.746Z,88.70
2022-08-12T14:15:36.707Z,88.10
2022-08-12T14:18:13.941Z,87.50
2022-08-12T14:20:47.680Z,86.90
2022-08-12T14:24:08.299Z,87.60
2022-08-12T14:26:12.116Z,87.60
2022-08-12T14:28:45.379Z,87.70
2022-08-12T14:31:31.427Z,87.90
2022-08-12T14:34:05.084Z,87.70
2022-08-12T14:36:34.210Z,87.40
2022-08-12T14:39:06.040Z,87.00
2022-08-12T14:41:36.687Z,87.20
2022-08-12T14:44:59.753Z,87.30
2022-08-12T14:50:37.589Z,86.00
2022-08-12T14:53:03.351Z,86.40
2022-08-12T14:58:04.195Z,82.80
2022-08-12T15:00:53.460Z,82.40
2022-08-12T15:03:52.310Z,81.60
2022-08-12T15:06:43.656Z,82.70
2022-08-12T15:09:11.997Z,83.50
2022-08-12T15:11:54.333Z,82.70
2022-08-12T15:14:25.666Z,83.10
2022-08-12T15:16:54.773Z,82.30
2022-08-12T15:20:11.518Z,82.40
2022-08-12T15:22:36.006Z,82.90
2022-08-12T15:24:59.905Z,82.40
2022-08-12T15:28:03.315Z,82.40
2022-08-12T15:30:22.666Z,81.70
2022-08-12T15:32:53.586Z,81.50
2022-08-12T15:35:22.220Z,81.70
2022-08-12T15:38:10.216Z,81.40
2022-08-12T15:40:46.918Z,82.30
2022-08-12T15:44:14.276Z,82.30
2022-08-12T15:46:15.070Z,82.60
2022-08-12T15:48:46.692Z,82.60
2022-08-12T15:51:59.627Z,83.00
2022-08-12T15:54:33.914Z,82.90
2022-08-12T15:57:05.694Z,83.20
2022-08-12T16:00:00.196Z,82.80
2022-08-12T16:02:29.490Z,82.30
2022-08-12T16:04:59.008Z,82.80
2022-08-12T16:07:31.222Z,83.40
2022-08-12T16:10:06.907Z,83.80
2022-08-12T16:12:54.667Z,83.80
2022-08-12T16:15:26.727Z,84.00
2022-08-12T16:18:19.575Z,84.30
2022-08-12T16:20:47.330Z,84.50
2022-08-12T16:23:50.999Z,84.80
2022-08-12T16:26:14.474Z,85.00
2022-08-12T16:28:47.591Z,84.70
2022-08-12T16:31:23.248Z,84.90
2022-08-12T16:33:59.563Z,85.60
2022-08-12T16:36:30.358Z,84.90
2022-08-12T16:39:01.270Z,84.30
2022-08-12T16:41:33.415Z,83.80
2022-08-12T16:44:08.691Z,83.60
2022-08-12T16:46:38.852Z,84.30
2022-08-12T16:49:13.730Z,85.40
2022-08-12T16:51:46.653Z,85.70
2022-08-12T16:54:18.601Z,86.20
2022-08-12T16:56:55.407Z,86.50
2022-08-12T16:59:30.994Z,86.70
2022-08-12T17:02:33.620Z,86.70
2022-08-12T17:05:05.202Z,87.20
2022-08-12T17:07:43.012Z,87.20
2022-08-12T17:10:13.966Z,86.60
2022-08-12T17:12:46.989Z,85.10
2022-08-12T17:15:21.692Z,85.30
2022-08-12T17:18:42.510Z,84.90
2022-08-12T17:20:59.742Z,83.90
2022-08-12T17:23:47.920Z,83.20
2022-08-12T17:26:18.642Z,82.70
2022-08-12T17:28:53.265Z,82.50
2022-08-12T17:31:59.608Z,82.30
2022-08-12T17:34:33.428Z,82.80
2022-08-12T17:37:02.830Z,82.60
2022-08-12T17:40:16.017Z,82.60
2022-08-12T17:42:34.272Z,82.20
2022-08-12T17:45:17.038Z,81.70
2022-08-12T17:48:01.783Z,81.10
2022-08-12T17:50:38.219Z,81.00
2022-08-12T17:53:08.007Z,80.40
2022-08-12T17:55:47.262Z,80.30
2022-08-12T17:58:19.021Z,80.50
2022-08-12T18:00:51.858Z,80.70
2022-08-12T18:04:05.055Z,80.70
2022-08-12T18:06:14.151Z,80.50
2022-08-12T18:08:54.710Z,80.70
2022-08-12T18:12:06.417Z,81.00
2022-08-12T18:14:31.398Z,80.50
2022-08-12T18:17:02.456Z,80.50
2022-08-12T18:20:03.741Z,80.60
2022-08-12T18:22:30.895Z,80.00
2022-08-12T18:25:03.969Z,79.90
2022-08-12T18:27:44.999Z,79.60
2022-08-12T18:30:29.003Z,79.10
2022-08-12T18:33:03.427Z,78.40
2022-08-12T18:35:46.908Z,78.40
2022-08-12T18:38:25.030Z,78.10
2022-08-12T18:41:21.937Z,77.90
2022-08-12T18:44:00.821Z,78.10
2022-08-12T18:46:37.447Z,78.00
2022-08-12T18:49:17.980Z,77.70
2022-08-12T18:51:55.086Z,77.30
2022-08-12T18:54:27.083Z,77.10
2022-08-12T18:56:59.359Z,77.30
2022-08-12T19:00:02.057Z,77.40
2022-08-12T19:02:22.620Z,77.20
2022-08-12T19:04:53.146Z,77.00
2022-08-12T19:07:24.305Z,77.00
2022-08-12T19:09:58.371Z,77.00
2022-08-12T19:12:47.593Z,77.60
2022-08-12T19:15:26.695Z,78.20
2022-08-12T19:18:01.245Z,78.50
2022-08-12T19:20:34.213Z,79.10
2022-08-12T19:23:08.190Z,79.50
2022-08-12T19:25:59.355Z,80.10
2022-08-12T19:28:34.674Z,80.60
2022-08-12T19:31:55.904Z,80.90
2022-08-12T19:37:22.679Z,81.50
2022-08-12T19:40:10.221Z,81.90
2022-08-12T19:43:01.087Z,82.10
2022-08-12T19:45:43.934Z,82.60
2022-08-12T19:48:20.193Z,83.20
2022-08-12T19:50:55.373Z,83.90
2022-08-12T19:53:25.192Z,84.20
2022-08-12T19:55:58.258Z,84.30
2022-08-12T19:58:28.623Z,84.20
2022-08-12T20:00:57.539Z,84.40
2022-08-12T20:03:40.410Z,84.70
2022-08-12T20:06:15.927Z,84.80
2022-08-12T20:08:48.704Z,84.80
2022-08-12T20:12:09.714Z,84.80
2022-08-12T20:14:08.361Z,84.90
2022-08-12T20:16:53.038Z,85.10
2022-08-12T20:19:53.276Z,85.20
2022-08-12T20:22:24.291Z,85.30
2022-08-12T20:25:01.401Z,85.20
2022-08-12T20:28:05.234Z,85.30
2022-08-12T20:30:37.201Z,85.40
2022-08-12T20:33:18.329Z,85.60
2022-08-12T20:36:13.464Z,85.90
2022-08-12T20:38:40.485Z,86.10
2022-08-12T20:41:17.400Z,86.30
2022-08-12T20:43:49.517Z,86.40
2022-08-12T20:46:20.248Z,86.20
2022-08-12T20:48:55.349Z,86.30
2022-08-12T20:51:27.376Z,86.40
2022-08-12T20:53:59.424Z,86.40
2022-08-12T20:56:34.604Z,86.50
2022-08-12T20:59:06.144Z,86.70
2022-08-12T21:01:47.680Z,86.90
2022-08-12T21:04:34.931Z,87.20
2022-08-12T21:07:09.299Z,87.40
2022-08-12T21:09:41.574Z,87.70
2022-08-12T21:12:24.829Z,87.90
2022-08-12T21:15:17.105Z,88.80
2022-08-12T21:18:09.322Z,88.10
2022-08-12T21:20:44.571Z,88.20
2022-08-12T21:23:13.847Z,88.20
2022-08-12T21:25:45.003Z,88.30
2022-08-12T21:28:14.594Z,88.40
2022-08-12T21:30:55.131Z,88.60
2022-08-12T21:33:58.675Z,88.60
2022-08-12T21:36:34.572Z,88.80
2022-08-12T21:39:18.934Z,89.10
2022-08-12T21:41:50.185Z,89.30
2022-08-12T21:44:23.965Z,89.50
2022-08-12T21:47:20.748Z,89.70
2022-08-12T21:50:02.958Z,89.90
2022-08-12T21:52:48.857Z,90.00
2022-08-12T21:55:20.417Z,90.10
2022-08-12T21:57:53.050Z,90.10
2022-08-12T22:00:31.819Z,90.10
2022-08-12T22:03:25.022Z,90.20
2022-08-12T22:06:30.595Z,90.30
2022-08-12T22:09:15.730Z,90.40
2022-08-12T22:11:56.467Z,90.50
2022-08-12T22:14:29.443Z,90.50
2022-08-12T22:17:00.541Z,90.50
2022-08-12T22:19:33.781Z,90.50
2022-08-12T22:22:06.064Z,90.60
2022-08-12T22:24:34.748Z,90.60
2022-08-12T22:27:18.299Z,90.60
2022-08-12T22:30:16.707Z,90.70
2022-08-12T22:32:49.964Z,90.70
2022-08-12T22:35:55.816Z,90.80
2022-08-12T22:38:25.425Z,90.80
2022-08-12T22:40:55.844Z,90.70
2022-08-12T22:44:01.044Z,90.70
2022-08-12T22:46:53.104Z,90.70
2022-08-12T22:49:37.339Z,90.40
2022-08-12T22:52:12.541Z,90.30
2022-08-12T22:54:46.283Z,90.30
2022-08-12T22:57:53.690Z,90.20
2022-08-12T23:00:24.271Z,90.20
2022-08-12T23:02:56.755Z,90.20
2022-08-12T23:05:57.680Z,90.20
2022-08-12T23:08:18.118Z,90.10
2022-08-12T23:10:50.235Z,90.40
2022-08-12T23:13:43.048Z,90.10
2022-08-12T23:16:18.040Z,90.10
2022-08-12T23:18:48.171Z,90.10
2022-08-12T23:21:18.537Z,90.10
2022-08-12T23:24:09.086Z,90.10
2022-08-12T23:26:57.778Z,90.20
2022-08-12T23:29:42.853Z,90.20
2022-08-12T23:32:35.172Z,90.20
2022-08-12T23:35:03.968Z,90.20
2022-08-12T23:37:47.328Z,90.30
2022-08-12T23:40:21.276Z,90.30
2022-08-12T23:42:52.083Z,90.30
2022-08-12T23:45:31.294Z,90.30
2022-08-12T23:48:03.101Z,90.30
2022-08-12T23:50:34.108Z,90.30
2022-08-12T23:53:05.316Z,90.40
2022-08-12T23:55:40.486Z,90.40
2022-08-12T23:58:20.784Z,90.40
